Aral'sk, Kazakhstan
Current Conditions -  °F | °C
As of 6:30 PM on Tuesday 21 Oct 2014 (Local Time) from UAOO Reporting Station
Broken Clouds Broken Clouds  
Wind Chill: 36°   Ceiling: 3300
Heat Index: 39°   Visibility: 6mi
Dew Point: 32°   Wind: 4mph
Humidity: 75%   Direction: 80°E
Pressure: 30.24"   Gusts: NA
Location:  46.78°N, 61.65°E
Report Text: UAOO 211330Z 08002MPS 9999 BKN033CB 04/00 Q1024 R06/CLRD70NOSIG RMK QFE756/1008
Loading
Personal Weather Stations






























Interactive Weather Map
Tropical Storm Tracking
New forecast layout! Learn more

10-Day Weather Forecast

Advertisements
Track Severe Weather on mobile